»·PEaware :: N4628G KLKV-O22

N4628G :: KLKV-O22

FLIGHT INFORMATION

Flight Status: Arrived
Operator: Privately registered:
United States
More flights under this callsign
Pilot: Phillip S. (23877)
Aircraft: Unknown
(B60T)
More flights by this aircraft type
Origin: KLKV Lake Co
United States
Destination: O22 Columbia
United States
More flights between these airports :: More routes between these airports
Route: NEWPI V165 FMG V113 KATSO
File this flight plan on PilotEdge
Remarks: +CW / NO REMARKS
Altitude:
(Current/Filed)
17,000ft
Speed:
(Current/Filed)
200kts
Departed: 11-Jun-19 01:47 PM
Arrived: 11-Jun-19 03:10 PM
Distance/Time
Traveled:
248nm/1:23
Distance/Time
To Go:
Arrived

Flight Plot

Page will automatically refresh every two minutes.

Flight plan parsing failed; only flown route is shown


Map Options




Map Legend


Flown Route
Filed Route
Departure Airport
Arrival Airport
Navaid (VOR, NDB)
Fix

Horizontal Profiles

Position Reports

Time Latitude Longitude Heading Altitude Ground
Speed
11-Jun-19 13:32 42.156167 -120.408756 199 4729ft 0kts
11-Jun-19 13:33 42.156165 -120.408758 199 4729ft 0kts
11-Jun-19 13:34 42.156162 -120.408759 199 4729ft 0kts
11-Jun-19 13:35 42.156159 -120.408760 199 4729ft 0kts
11-Jun-19 13:36 42.156156 -120.408761 199 4729ft 0kts
11-Jun-19 13:37 42.156154 -120.408763 199 4729ft 0kts
11-Jun-19 13:38 42.156151 -120.408764 199 4729ft 0kts
11-Jun-19 13:39 42.156407 -120.408564 120 4729ft 2kts
11-Jun-19 13:40 42.155895 -120.406538 107 4729ft 6kts
11-Jun-19 13:41 42.155018 -120.403376 109 4729ft 10kts
11-Jun-19 13:42 42.154091 -120.399970 100 4729ft 0kts
11-Jun-19 13:43 42.154090 -120.399966 100 4729ft 0kts
11-Jun-19 13:44 42.154090 -120.399962 100 4729ft 0kts
11-Jun-19 13:45 42.154193 -120.399029 4 4729ft 4kts
11-Jun-19 13:46 42.160796 -120.398867 2 4729ft 136kts
11-Jun-19 13:47 42.207958 -120.397985 1 6727ft 197kts
11-Jun-19 13:48 42.260218 -120.382553 57 8516ft 210kts
11-Jun-19 13:49 42.234593 -120.334244 195 10310ft 205kts
11-Jun-19 13:51 42.185634 -120.375085 215 12131ft 209kts
11-Jun-19 13:52 42.129743 -120.390288 173 13931ft 211kts
11-Jun-19 13:53 42.074106 -120.361405 146 15751ft 220kts
11-Jun-19 13:54 42.035360 -120.297569 124 16987ft 239kts
11-Jun-19 13:55 41.978921 -120.266403 207 16996ft 250kts
11-Jun-19 13:56 41.919630 -120.315299 213 16990ft 249kts
11-Jun-19 13:57 41.853751 -120.329090 170 16986ft 252kts
11-Jun-19 13:58 41.784227 -120.310522 169 16975ft 256kts
11-Jun-19 13:59 41.714257 -120.291385 168 16984ft 257kts
11-Jun-19 14:00 41.646648 -120.263113 159 16982ft 256kts
11-Jun-19 14:01 41.578715 -120.236433 167 16993ft 254kts
11-Jun-19 14:02 41.510133 -120.215757 168 16996ft 252kts
11-Jun-19 14:03 41.441717 -120.195980 168 16989ft 251kts
11-Jun-19 14:04 41.376230 -120.177102 168 16989ft 251kts
11-Jun-19 14:05 41.307799 -120.157291 168 16988ft 251kts
11-Jun-19 14:06 41.239671 -120.137292 168 16988ft 250kts
11-Jun-19 14:07 41.171407 -120.117663 168 16983ft 250kts
11-Jun-19 14:08 41.103683 -120.098088 168 17000ft 249kts
11-Jun-19 14:09 41.035900 -120.078670 168 17086ft 246kts
11-Jun-19 14:09 40.979510 -120.062518 168 17115ft 253kts
11-Jun-19 14:11 40.903847 -120.040687 168 17113ft 254kts
11-Jun-19 14:12 40.835645 -120.021174 168 17122ft 248kts
11-Jun-19 14:12 40.779490 -120.005304 168 17123ft 247kts
11-Jun-19 14:13 40.712259 -119.986126 169 17123ft 249kts
11-Jun-19 14:14 40.643446 -119.966383 168 17118ft 256kts
11-Jun-19 14:15 40.574400 -119.946929 169 17123ft 253kts
11-Jun-19 14:16 40.505193 -119.927196 168 17120ft 255kts
11-Jun-19 14:17 40.436253 -119.907948 168 17123ft 253kts
11-Jun-19 14:18 40.366810 -119.888417 169 17115ft 259kts
11-Jun-19 14:19 40.297530 -119.868854 169 17143ft 253kts
11-Jun-19 14:20 40.228300 -119.849348 169 17137ft 258kts
11-Jun-19 14:21 40.158178 -119.829849 168 17126ft 260kts
11-Jun-19 14:22 40.088399 -119.810025 169 17038ft 255kts
11-Jun-19 14:23 40.018931 -119.790845 168 17013ft 259kts
11-Jun-19 14:24 39.950728 -119.771927 169 17015ft 257kts
11-Jun-19 14:25 39.881993 -119.753331 168 16994ft 251kts
11-Jun-19 14:26 39.814640 -119.734493 168 16998ft 246kts
11-Jun-19 14:27 39.747403 -119.715874 168 16995ft 247kts
11-Jun-19 14:28 39.680460 -119.697436 168 16994ft 245kts
11-Jun-19 14:29 39.613485 -119.679184 168 16995ft 245kts
11-Jun-19 14:30 39.546023 -119.661001 173 16986ft 251kts
11-Jun-19 14:31 39.481921 -119.689953 207 16995ft 247kts
11-Jun-19 14:32 39.421165 -119.731608 207 17000ft 247kts
11-Jun-19 14:33 39.360484 -119.773126 207 17011ft 248kts
11-Jun-19 14:34 39.299609 -119.814702 207 17032ft 246kts
11-Jun-19 14:35 39.238908 -119.856080 207 17041ft 247kts
11-Jun-19 14:36 39.180193 -119.896025 207 17039ft 253kts
11-Jun-19 14:37 39.118189 -119.938121 207 17050ft 253kts
11-Jun-19 14:38 39.056820 -119.979701 207 17078ft 247kts
11-Jun-19 14:39 38.996304 -120.020450 206 17120ft 243kts
11-Jun-19 14:40 38.936278 -120.060768 206 17135ft 242kts
11-Jun-19 14:41 38.876667 -120.100990 206 17140ft 242kts
11-Jun-19 14:42 38.816871 -120.141265 206 17130ft 242kts
11-Jun-19 14:43 38.756976 -120.181013 206 17111ft 242kts
11-Jun-19 14:44 38.697456 -120.221066 206 17071ft 242kts
11-Jun-19 14:45 38.637800 -120.261469 212 17034ft 242kts
11-Jun-19 14:46 38.588552 -120.321813 214 16987ft 249kts
11-Jun-19 14:47 38.521885 -120.336695 182 16211ft 230kts
11-Jun-19 14:48 38.461297 -120.343583 186 15181ft 217kts
11-Jun-19 14:49 38.399448 -120.353589 186 13386ft 230kts
11-Jun-19 14:50 38.336710 -120.364575 186 11592ft 229kts
11-Jun-19 14:51 38.273356 -120.374867 186 9784ft 232kts
11-Jun-19 14:52 38.209540 -120.383579 186 8074ft 229kts
11-Jun-19 14:53 38.157449 -120.416658 214 7226ft 218kts
11-Jun-19 14:54 38.109745 -120.462585 231 6000ft 205kts
11-Jun-19 14:55 38.119539 -120.517607 326 5947ft 190kts
11-Jun-19 14:56 38.156422 -120.567433 279 4648ft 213kts
11-Jun-19 14:57 38.132496 -120.622584 180 3561ft 188kts
11-Jun-19 14:58 38.107935 -120.578184 98 3111ft 124kts
11-Jun-19 14:59 38.101239 -120.537456 114 3126ft 121kts
11-Jun-19 15:00 38.085511 -120.499029 126 3039ft 122kts
11-Jun-19 15:01 38.064402 -120.466458 129 3036ft 116kts
11-Jun-19 15:02 38.044231 -120.435031 133 2917ft 121kts
11-Jun-19 15:03 38.051480 -120.402889 10 3789ft 148kts
11-Jun-19 15:04 38.097835 -120.400028 6 3968ft 138kts
11-Jun-19 15:05 38.132430 -120.395546 355 4176ft 116kts
11-Jun-19 15:06 38.124071 -120.421299 178 3788ft 122kts
11-Jun-19 15:07 38.090956 -120.416699 172 3841ft 121kts
11-Jun-19 15:08 38.055774 -120.408204 193 2861ft 129kts
11-Jun-19 15:09 38.029777 -120.413317 203 2083ft 37kts
11-Jun-19 15:10 38.028424 -120.412891 48 2083ft 4kts
11-Jun-19 15:11 38.028298 -120.412653 192 2083ft 0kts
11-Jun-19 15:12 38.028296 -120.412654 192 2083ft 0kts

Navigation Log

Ident Type
Flight plan parsing failed, navigation log unavailable